createdAt,value
2023-02-09T00:00:50.472Z,15.00
2023-02-09T00:01:52.872Z,16.35
2023-02-09T00:02:55.216Z,14.75
2023-02-09T00:03:58.537Z,16.15
2023-02-09T00:05:00.995Z,14.95
2023-02-09T00:06:05.438Z,14.70
2023-02-09T00:07:07.799Z,15.73
2023-02-09T00:08:10.162Z,14.95
2023-02-09T00:09:12.560Z,15.75
2023-02-09T00:10:14.879Z,14.70
2023-02-09T00:11:47.086Z,16.27
2023-02-09T00:13:07.877Z,14.40
2023-02-09T00:14:11.769Z,15.15
2023-02-09T00:15:14.232Z,16.02
2023-02-09T00:16:16.646Z,15.25
2023-02-09T00:17:19.054Z,15.27
2023-02-09T00:18:23.330Z,14.85
2023-02-09T00:19:25.748Z,15.20
2023-02-09T00:20:28.100Z,15.15
2023-02-09T00:21:30.592Z,15.57
2023-02-09T00:22:33.372Z,15.57
2023-02-09T00:23:38.224Z,15.25
2023-02-09T00:24:40.515Z,14.60
2023-02-09T00:25:42.918Z,14.40
2023-02-09T00:26:45.342Z,14.27
2023-02-09T00:27:48.035Z,15.32
2023-02-09T00:28:50.486Z,13.85
2023-02-09T00:29:55.646Z,13.90
2023-02-09T00:30:58.441Z,14.93
2023-02-09T00:32:00.969Z,14.27
2023-02-09T00:33:03.774Z,14.82
2023-02-09T00:34:06.642Z,14.90
2023-02-09T00:35:09.079Z,14.35
2023-02-09T00:36:13.635Z,14.00
2023-02-09T00:37:16.506Z,13.68
2023-02-09T00:38:21.278Z,14.90
2023-02-09T00:39:24.118Z,13.57
2023-02-09T00:40:26.583Z,13.95
2023-02-09T00:41:47.739Z,14.07
2023-02-09T00:42:50.591Z,15.48
2023-02-09T00:43:52.943Z,14.77
2023-02-09T00:44:56.286Z,13.38
2023-02-09T00:45:58.740Z,15.13
2023-02-09T00:47:02.370Z,15.35
2023-02-09T00:48:05.506Z,14.25
2023-02-09T00:49:08.289Z,14.82
2023-02-09T00:50:10.995Z,14.68
2023-02-09T00:51:13.318Z,13.43
2023-02-09T00:52:15.756Z,15.45
2023-02-09T00:53:19.119Z,14.95
2023-02-09T00:54:22.035Z,13.38
2023-02-09T00:55:24.548Z,14.23
2023-02-09T00:56:27.041Z,15.10
2023-02-09T00:57:30.234Z,15.40
2023-02-09T00:58:32.612Z,15.27
2023-02-09T00:59:35.619Z,13.30
2023-02-09T01:00:38.253Z,15.50
2023-02-09T01:01:40.753Z,15.10
2023-02-09T01:02:43.628Z,14.80
2023-02-09T01:03:46.145Z,15.60
2023-02-09T01:04:49.634Z,13.80
2023-02-09T01:05:52.138Z,14.65
2023-02-09T01:06:54.574Z,14.70
2023-02-09T01:07:57.638Z,14.15
2023-02-09T01:09:01.205Z,14.18
2023-02-09T01:10:04.812Z,13.38
2023-02-09T01:11:12.697Z,14.90
2023-02-09T01:12:15.225Z,15.20
2023-02-09T01:13:17.594Z,14.48
2023-02-09T01:14:19.940Z,14.65
2023-02-09T01:15:22.239Z,13.70
2023-02-09T01:16:25.098Z,14.27
2023-02-09T01:17:28.183Z,13.30
2023-02-09T01:18:31.141Z,14.88
2023-02-09T01:19:33.646Z,13.63
2023-02-09T01:20:36.044Z,13.85
2023-02-09T01:21:38.981Z,13.77
2023-02-09T01:22:41.605Z,14.65
2023-02-09T01:23:44.589Z,14.93
2023-02-09T01:24:47.367Z,14.18
2023-02-09T01:26:01.556Z,14.15
2023-02-09T01:27:04.101Z,14.25
2023-02-09T01:28:06.857Z,14.20
2023-02-09T01:29:14.194Z,12.90
2023-02-09T01:30:18.978Z,13.95
2023-02-09T01:31:30.792Z,14.70
2023-02-09T01:32:35.254Z,13.65
2023-02-09T01:33:38.061Z,13.43
2023-02-09T01:34:41.352Z,12.77
2023-02-09T01:35:43.766Z,14.18
2023-02-09T01:36:46.577Z,13.50
2023-02-09T01:37:49.292Z,13.63
2023-02-09T01:38:54.871Z,15.10
2023-02-09T01:39:57.694Z,13.57
2023-02-09T01:41:00.188Z,15.60
2023-02-09T01:42:03.820Z,15.80
2023-02-09T01:43:06.274Z,14.23
2023-02-09T01:44:11.647Z,15.25
2023-02-09T01:45:47.338Z,14.10
2023-02-09T01:46:49.608Z,13.57
2023-02-09T01:48:00.553Z,14.98
2023-02-09T01:49:10.092Z,14.63
2023-02-09T01:50:13.725Z,13.30
2023-02-09T01:51:17.954Z,12.88
2023-02-09T01:52:25.773Z,15.10
2023-02-09T01:53:28.924Z,14.45
2023-02-09T01:54:34.091Z,13.10
2023-02-09T01:55:44.624Z,13.75
2023-02-09T01:56:53.192Z,13.57
2023-02-09T01:58:01.353Z,13.13
2023-02-09T01:59:04.862Z,13.07
2023-02-09T02:00:15.226Z,12.23
2023-02-09T02:01:19.599Z,11.48
2023-02-09T02:02:23.105Z,12.75
2023-02-09T02:03:27.271Z,12.95
2023-02-09T02:04:31.003Z,13.77
2023-02-09T02:05:40.540Z,12.27
2023-02-09T02:06:43.092Z,13.40
2023-02-09T02:08:09.944Z,13.18
2023-02-09T02:09:15.442Z,12.02
2023-02-09T02:10:18.421Z,12.65
2023-02-09T02:11:23.760Z,10.77
2023-02-09T02:12:26.501Z,12.30
2023-02-09T02:13:28.863Z,11.32
2023-02-09T02:14:36.933Z,12.05
2023-02-09T02:16:05.569Z,12.48
2023-02-09T02:17:26.580Z,10.10
2023-02-09T02:18:57.456Z,10.07
2023-02-09T02:20:39.690Z,11.55
2023-02-09T02:21:48.203Z,9.50
2023-02-09T02:23:00.536Z,10.52
2023-02-09T02:24:32.750Z,12.02
2023-02-09T02:26:12.004Z,11.13
2023-02-09T02:27:31.751Z,10.30
2023-02-09T02:29:05.600Z,11.18
2023-02-09T02:30:26.972Z,10.93
2023-02-09T02:31:51.580Z,10.18
2023-02-09T02:33:18.820Z,11.57
2023-02-09T02:34:33.337Z,10.70
2023-02-09T02:35:41.889Z,11.85
2023-02-09T02:37:01.692Z,11.65
2023-02-09T02:38:20.205Z,12.27
2023-02-09T02:39:47.027Z,11.57
2023-02-09T02:41:01.802Z,10.60
2023-02-09T02:42:48.652Z,12.95
2023-02-09T02:44:03.540Z,10.55
2023-02-09T02:45:34.328Z,11.02
2023-02-09T02:46:44.396Z,11.18
2023-02-09T02:47:54.126Z,11.40
2023-02-09T02:49:15.294Z,11.73
2023-02-09T02:50:26.415Z,10.65
2023-02-09T02:51:35.730Z,11.52
2023-02-09T02:52:40.227Z,12.55
2023-02-09T02:53:46.340Z,11.80
2023-02-09T02:54:57.584Z,11.77
2023-02-09T02:56:37.374Z,10.68
2023-02-09T02:57:43.944Z,11.77
2023-02-09T02:58:49.475Z,11.80
2023-02-09T03:00:01.376Z,11.38
2023-02-09T03:01:07.573Z,11.23
2023-02-09T03:02:16.414Z,9.80
2023-02-09T03:03:22.126Z,12.02
2023-02-09T03:04:28.259Z,11.05
2023-02-09T03:05:31.516Z,10.93
2023-02-09T03:06:37.094Z,12.18
2023-02-09T03:07:40.537Z,10.48
2023-02-09T03:09:58.146Z,9.10
2023-02-09T03:11:00.503Z,10.25
2023-02-09T03:12:17.938Z,11.02
2023-02-09T03:13:29.298Z,10.10
2023-02-09T03:15:15.246Z,9.27
2023-02-09T03:16:30.127Z,10.38
2023-02-09T03:17:41.997Z,9.43
2023-02-09T03:18:56.354Z,9.98
2023-02-09T03:20:06.194Z,10.13
2023-02-09T03:21:18.931Z,10.18
2023-02-09T03:22:24.122Z,10.68
2023-02-09T03:23:33.229Z,10.38
2023-02-09T03:24:41.596Z,10.93
2023-02-09T03:25:47.274Z,10.32
2023-02-09T03:27:00.805Z,9.43
2023-02-09T03:28:29.468Z,10.38
2023-02-09T03:29:33.601Z,8.82
2023-02-09T03:30:37.224Z,9.38
2023-02-09T03:31:40.358Z,9.05
2023-02-09T03:32:45.765Z,9.45
2023-02-09T03:33:49.188Z,10.38
2023-02-09T03:34:53.016Z,10.13
2023-02-09T03:35:57.791Z,9.90
2023-02-09T03:37:00.173Z,10.05
2023-02-09T03:38:07.690Z,10.38
2023-02-09T03:39:11.167Z,10.10
2023-02-09T03:40:13.870Z,10.60
2023-02-09T03:41:18.228Z,10.55
2023-02-09T03:42:20.677Z,10.07
2023-02-09T03:43:43.048Z,9.98
2023-02-09T03:44:45.471Z,11.13
2023-02-09T03:45:47.764Z,9.85
2023-02-09T03:46:50.497Z,10.50
2023-02-09T03:47:52.975Z,10.50
2023-02-09T03:49:59.580Z,9.60
2023-02-09T03:51:02.128Z,11.65
2023-02-09T03:52:04.541Z,11.43
2023-02-09T03:53:06.872Z,11.85
2023-02-09T03:54:09.462Z,13.45
2023-02-09T03:55:11.836Z,12.02
2023-02-09T03:56:14.284Z,13.23
2023-02-09T03:57:16.823Z,13.57
2023-02-09T03:58:19.286Z,14.07
2023-02-09T03:59:22.365Z,13.40
2023-02-09T04:00:24.694Z,13.02
2023-02-09T04:01:28.322Z,12.85
2023-02-09T04:02:30.936Z,12.52
2023-02-09T04:03:33.883Z,14.85
2023-02-09T04:04:37.022Z,13.13
2023-02-09T04:05:39.370Z,16.08
2023-02-09T04:06:41.870Z,14.23
2023-02-09T04:07:44.230Z,14.27
2023-02-09T04:09:51.736Z,12.60
2023-02-09T04:10:54.387Z,13.73
2023-02-09T04:11:56.933Z,14.77
2023-02-09T04:12:59.200Z,13.50
2023-02-09T04:14:01.634Z,15.20
2023-02-09T04:15:04.517Z,11.95
2023-02-09T04:16:07.837Z,12.15
2023-02-09T04:17:10.686Z,9.88
2023-02-09T04:18:13.283Z,11.23
2023-02-09T04:19:15.733Z,10.88
2023-02-09T04:20:18.377Z,10.75
2023-02-09T04:21:21.156Z,11.20
2023-02-09T04:23:27.693Z,9.38
2023-02-09T04:24:30.298Z,10.00
2023-02-09T04:25:32.749Z,9.45
2023-02-09T04:26:35.852Z,10.00
2023-02-09T04:27:38.248Z,9.77
2023-02-09T04:28:44.562Z,10.27
2023-02-09T04:29:46.969Z,10.68
2023-02-09T04:30:54.582Z,10.38
2023-02-09T04:31:57.566Z,10.18
2023-02-09T04:32:59.983Z,9.63
2023-02-09T04:34:02.409Z,9.70
2023-02-09T04:35:05.108Z,10.02
2023-02-09T04:36:08.719Z,9.23
2023-02-09T04:37:11.088Z,10.90
2023-02-09T04:38:13.535Z,9.98
2023-02-09T04:39:16.047Z,9.25
2023-02-09T04:40:19.339Z,8.95
2023-02-09T04:41:21.710Z,8.90
2023-02-09T04:42:24.972Z,9.65
2023-02-09T04:43:28.176Z,9.38
2023-02-09T04:44:30.480Z,10.48
2023-02-09T04:45:32.965Z,9.20
2023-02-09T04:46:35.564Z,8.93
2023-02-09T04:47:37.976Z,9.70
2023-02-09T04:48:44.248Z,9.10
2023-02-09T04:49:47.115Z,9.77
2023-02-09T04:50:49.981Z,10.23
2023-02-09T04:51:52.554Z,10.38
2023-02-09T04:52:54.892Z,10.73
2023-02-09T04:53:57.279Z,8.93
2023-02-09T04:54:59.678Z,10.48
2023-02-09T04:56:02.208Z,9.38
2023-02-09T04:57:23.321Z,9.52
2023-02-09T04:58:44.421Z,10.13
2023-02-09T04:59:46.955Z,8.90
2023-02-09T05:00:49.741Z,9.20
2023-02-09T05:01:52.311Z,8.68
2023-02-09T05:02:55.123Z,10.45
2023-02-09T05:03:57.720Z,10.10
2023-02-09T05:05:00.214Z,9.25
2023-02-09T05:06:05.831Z,10.07
2023-02-09T05:07:08.390Z,10.32
2023-02-09T05:08:10.918Z,10.38
2023-02-09T05:09:15.100Z,9.90
2023-02-09T05:10:17.850Z,9.77
2023-02-09T05:11:22.242Z,10.75
2023-02-09T05:12:25.179Z,10.82
2023-02-09T05:13:28.613Z,10.60
2023-02-09T05:14:30.970Z,12.30
2023-02-09T05:15:33.367Z,12.15
2023-02-09T05:16:37.608Z,12.68
2023-02-09T05:17:41.608Z,12.68
2023-02-09T05:18:44.847Z,12.63
2023-02-09T05:19:48.404Z,10.95
2023-02-09T05:20:50.934Z,11.95
2023-02-09T05:21:53.405Z,10.82
2023-02-09T05:22:55.779Z,12.10
2023-02-09T05:23:58.177Z,11.13
2023-02-09T05:25:00.473Z,12.93
2023-02-09T05:26:02.972Z,10.63
2023-02-09T05:27:05.405Z,10.43
2023-02-09T05:28:08.363Z,11.30
2023-02-09T05:29:12.150Z,12.38
2023-02-09T05:30:14.745Z,13.43
2023-02-09T05:31:21.107Z,12.27
2023-02-09T05:32:23.655Z,13.07
2023-02-09T05:33:26.985Z,12.95
2023-02-09T05:34:29.386Z,13.43
2023-02-09T05:35:31.966Z,14.35
2023-02-09T05:36:34.533Z,15.15
2023-02-09T05:37:36.931Z,13.82
2023-02-09T05:39:43.776Z,13.10
2023-02-09T05:40:46.743Z,14.40
2023-02-09T05:42:07.775Z,14.32
2023-02-09T05:43:11.483Z,13.75
2023-02-09T05:44:13.949Z,12.90
2023-02-09T05:45:16.352Z,12.63
2023-02-09T05:46:18.759Z,13.30
2023-02-09T05:47:23.065Z,14.23
2023-02-09T05:48:26.117Z,14.45
2023-02-09T05:49:28.816Z,14.70
2023-02-09T05:50:31.368Z,14.80
2023-02-09T05:51:34.114Z,13.32
2023-02-09T05:52:36.492Z,13.75
2023-02-09T05:53:38.942Z,15.05
2023-02-09T05:54:41.258Z,17.70
2023-02-09T05:55:44.141Z,19.95
2023-02-09T05:56:47.295Z,20.48
2023-02-09T05:57:49.697Z,20.50
2023-02-09T05:58:52.601Z,19.45
2023-02-09T05:59:55.046Z,18.90
2023-02-09T06:00:57.493Z,18.98
2023-02-09T06:02:00.121Z,18.40
2023-02-09T06:03:02.976Z,18.48
2023-02-09T06:04:06.195Z,19.10
2023-02-09T06:05:08.669Z,19.00
2023-02-09T06:06:10.999Z,21.58
2023-02-09T06:07:13.742Z,22.83
2023-02-09T06:08:16.770Z,23.27
2023-02-09T06:09:20.055Z,24.85
2023-02-09T06:10:22.951Z,21.40
2023-02-09T06:11:26.688Z,22.40
2023-02-09T06:12:29.017Z,19.48
2023-02-09T06:13:31.292Z,22.92
2023-02-09T06:14:33.583Z,22.67
2023-02-09T06:15:36.086Z,27.20
2023-02-09T06:16:38.666Z,29.23
2023-02-09T06:17:41.469Z,33.03
2023-02-09T06:18:44.685Z,31.02
2023-02-09T06:19:47.213Z,25.15
2023-02-09T06:20:49.847Z,25.48
2023-02-09T06:21:55.420Z,24.77
2023-02-09T06:22:58.046Z,20.88
2023-02-09T06:24:00.369Z,17.85
2023-02-09T06:25:02.998Z,18.48
2023-02-09T06:26:07.868Z,18.85
2023-02-09T06:27:12.698Z,24.02
2023-02-09T06:28:15.188Z,33.88
2023-02-09T06:29:17.812Z,34.63
2023-02-09T06:30:20.544Z,53.15
2023-02-09T06:31:23.668Z,39.83
2023-02-09T06:32:26.150Z,40.13
2023-02-09T06:33:28.478Z,35.75
2023-02-09T06:34:30.948Z,30.25
2023-02-09T06:35:33.309Z,40.75
2023-02-09T06:36:35.727Z,51.78
2023-02-09T06:37:38.654Z,43.10
2023-02-09T06:38:41.401Z,37.95
2023-02-09T06:39:43.766Z,34.67
2023-02-09T06:40:47.806Z,19.92
2023-02-09T06:41:50.727Z,22.67
2023-02-09T06:42:53.334Z,19.40
2023-02-09T06:43:55.986Z,20.63
2023-02-09T06:44:59.730Z,29.60
2023-02-09T06:46:07.765Z,35.75
2023-02-09T06:47:10.418Z,72.13
2023-02-09T06:48:12.923Z,70.30
2023-02-09T06:49:15.702Z,59.47
2023-02-09T06:50:18.691Z,48.33
2023-02-09T06:51:21.365Z,37.97
2023-02-09T06:52:24.142Z,28.70
2023-02-09T06:53:26.561Z,20.27
2023-02-09T06:54:29.513Z,21.83
2023-02-09T06:55:33.154Z,27.50
2023-02-09T06:56:35.629Z,22.95
2023-02-09T06:57:38.150Z,22.92
2023-02-09T06:58:43.048Z,25.85
2023-02-09T06:59:45.772Z,29.45
2023-02-09T07:00:48.689Z,25.58
2023-02-09T07:01:54.556Z,24.63
2023-02-09T07:02:59.354Z,23.67
2023-02-09T07:05:04.768Z,23.10
2023-02-09T07:06:09.964Z,33.55
2023-02-09T07:07:12.314Z,31.42
2023-02-09T07:08:15.012Z,31.92
2023-02-09T07:09:17.402Z,27.42
2023-02-09T07:10:19.940Z,25.52
2023-02-09T07:11:24.783Z,19.50
2023-02-09T07:12:27.139Z,20.65
2023-02-09T07:13:32.049Z,20.77
2023-02-09T07:14:34.473Z,21.55
2023-02-09T07:15:37.016Z,24.83
2023-02-09T07:16:39.568Z,24.95
2023-02-09T07:17:42.508Z,22.58
2023-02-09T07:18:45.405Z,20.90
2023-02-09T07:19:48.176Z,20.90
2023-02-09T07:20:55.524Z,20.83
2023-02-09T07:21:58.047Z,21.17
2023-02-09T07:23:01.638Z,20.80
2023-02-09T07:24:04.264Z,21.35
2023-02-09T07:25:07.214Z,19.88
2023-02-09T07:26:13.808Z,20.83
2023-02-09T07:27:16.660Z,18.55
2023-02-09T07:28:22.286Z,20.20
2023-02-09T07:29:25.524Z,22.00
2023-02-09T07:30:27.977Z,25.13
2023-02-09T07:31:33.153Z,30.25
2023-02-09T07:32:38.051Z,25.85
2023-02-09T07:33:40.533Z,27.75
2023-02-09T07:34:42.947Z,22.73
2023-02-09T07:35:45.486Z,22.95
2023-02-09T07:36:49.092Z,21.60
2023-02-09T07:37:51.891Z,23.63
2023-02-09T07:38:55.630Z,22.83
2023-02-09T07:39:58.312Z,22.65
2023-02-09T07:41:03.211Z,23.30
2023-02-09T07:42:05.599Z,19.70
2023-02-09T07:43:35.053Z,21.42
2023-02-09T07:44:39.262Z,20.67
2023-02-09T07:45:42.216Z,20.92
2023-02-09T07:46:44.976Z,25.92
2023-02-09T07:47:47.394Z,43.75
2023-02-09T07:48:50.466Z,46.40
2023-02-09T07:49:53.158Z,42.50
2023-02-09T07:50:56.119Z,31.00
2023-02-09T07:51:58.690Z,38.80
2023-02-09T07:53:01.259Z,25.95
2023-02-09T07:54:04.637Z,32.38
2023-02-09T07:55:12.742Z,30.10
2023-02-09T07:56:15.034Z,32.83
2023-02-09T07:57:17.360Z,34.20
2023-02-09T07:58:22.152Z,28.85
2023-02-09T07:59:24.495Z,32.03
2023-02-09T08:00:27.416Z,31.13
2023-02-09T08:01:29.831Z,25.02
2023-02-09T08:02:35.879Z,23.95
2023-02-09T08:03:40.969Z,25.55
2023-02-09T08:04:44.833Z,26.17
2023-02-09T08:05:55.678Z,26.38
2023-02-09T08:06:58.386Z,24.67
2023-02-09T08:08:01.424Z,22.63
2023-02-09T08:09:06.519Z,20.92
2023-02-09T08:10:09.114Z,17.60
2023-02-09T08:11:15.090Z,19.73
2023-02-09T08:12:17.724Z,16.70
2023-02-09T08:13:20.456Z,18.20
2023-02-09T08:14:29.233Z,18.15
2023-02-09T08:15:47.405Z,19.83
2023-02-09T08:16:51.509Z,19.90
2023-02-09T08:17:57.860Z,23.98
2023-02-09T08:19:05.673Z,24.00
2023-02-09T08:20:15.978Z,20.17
2023-02-09T08:21:19.360Z,20.60
2023-02-09T08:22:24.677Z,19.48
2023-02-09T08:23:31.128Z,19.30
2023-02-09T08:24:33.650Z,19.60
2023-02-09T08:25:36.861Z,18.85
2023-02-09T08:26:39.729Z,19.80
2023-02-09T08:27:43.480Z,18.77
2023-02-09T08:29:08.125Z,19.55
2023-02-09T08:30:30.723Z,18.30
2023-02-09T08:31:48.406Z,21.30
2023-02-09T08:32:50.733Z,18.13
2023-02-09T08:33:53.274Z,20.23
2023-02-09T08:34:55.584Z,21.75
2023-02-09T08:35:57.891Z,21.00
2023-02-09T08:37:00.423Z,20.30
2023-02-09T08:38:04.663Z,21.98
2023-02-09T08:39:07.789Z,21.48
2023-02-09T08:40:10.600Z,22.23
2023-02-09T08:41:15.626Z,22.50
2023-02-09T08:42:17.968Z,21.90
2023-02-09T08:43:20.272Z,22.73
2023-02-09T08:44:22.616Z,22.02
2023-02-09T08:45:25.261Z,22.73
2023-02-09T08:46:27.882Z,23.73
2023-02-09T08:47:30.299Z,23.55
2023-02-09T08:48:35.906Z,22.73
2023-02-09T08:49:38.817Z,22.20
2023-02-09T08:50:41.128Z,20.20
2023-02-09T08:51:43.402Z,20.77
2023-02-09T08:52:45.805Z,19.05
2023-02-09T08:53:52.678Z,18.88
2023-02-09T08:54:55.113Z,20.10
2023-02-09T08:55:57.489Z,19.48
2023-02-09T08:57:04.498Z,19.77
2023-02-09T08:58:07.903Z,19.08
2023-02-09T08:59:10.753Z,19.88
2023-02-09T09:00:13.854Z,21.63
2023-02-09T09:01:16.320Z,21.60
2023-02-09T09:02:18.693Z,21.05
2023-02-09T09:03:21.189Z,23.25
2023-02-09T09:04:24.049Z,24.88
2023-02-09T09:05:26.428Z,20.80
2023-02-09T09:06:28.976Z,20.48
2023-02-09T09:07:31.701Z,22.60
2023-02-09T09:08:35.977Z,19.10
2023-02-09T09:09:38.803Z,20.65
2023-02-09T09:10:41.109Z,20.92
2023-02-09T09:11:43.501Z,22.13
2023-02-09T09:12:45.878Z,20.65
2023-02-09T09:13:49.123Z,27.17
2023-02-09T09:14:51.550Z,24.92
2023-02-09T09:15:57.725Z,25.00
2023-02-09T09:17:00.530Z,34.72
2023-02-09T09:18:02.974Z,36.00
2023-02-09T09:19:05.882Z,29.02
2023-02-09T09:20:09.029Z,31.80
2023-02-09T09:21:16.667Z,25.95
2023-02-09T09:22:19.206Z,21.58
2023-02-09T09:23:21.515Z,32.70
2023-02-09T09:24:28.252Z,25.38
2023-02-09T09:25:30.493Z,23.92
2023-02-09T09:26:34.097Z,26.73
2023-02-09T09:27:36.608Z,29.92
2023-02-09T09:28:39.038Z,30.08
2023-02-09T09:29:41.477Z,32.33
2023-02-09T09:30:44.166Z,30.70
2023-02-09T09:31:46.598Z,28.58
2023-02-09T09:32:50.406Z,30.77
2023-02-09T09:33:55.525Z,22.42
2023-02-09T09:34:59.579Z,23.63
2023-02-09T09:37:04.434Z,23.13
2023-02-09T09:38:06.728Z,23.35
2023-02-09T09:39:09.200Z,27.00
2023-02-09T09:40:25.085Z,32.97
2023-02-09T09:41:34.725Z,27.33
2023-02-09T09:42:40.376Z,26.88
2023-02-09T09:43:43.631Z,23.55
2023-02-09T09:44:47.420Z,23.95
2023-02-09T09:45:50.901Z,24.13
2023-02-09T09:46:55.131Z,21.27
2023-02-09T09:49:00.340Z,29.48
2023-02-09T09:50:05.362Z,28.05
2023-02-09T09:51:24.649Z,29.85
2023-02-09T09:52:38.962Z,26.92
2023-02-09T09:53:44.266Z,27.23
2023-02-09T09:54:46.747Z,25.85
2023-02-09T09:55:55.482Z,23.58
2023-02-09T09:56:57.961Z,29.38
2023-02-09T09:58:04.315Z,30.05
2023-02-09T09:59:15.756Z,29.17
2023-02-09T10:00:22.859Z,26.45
2023-02-09T10:01:26.245Z,29.83
2023-02-09T10:02:31.934Z,27.95
2023-02-09T10:03:34.598Z,28.10
2023-02-09T10:04:38.112Z,22.63
2023-02-09T10:05:40.792Z,21.08
2023-02-09T10:06:46.953Z,22.45
2023-02-09T10:07:56.653Z,23.08
2023-02-09T10:09:01.578Z,24.00
2023-02-09T10:10:14.762Z,22.25
2023-02-09T10:11:22.635Z,21.50
2023-02-09T10:12:41.753Z,21.38
2023-02-09T10:13:54.757Z,19.52
2023-02-09T10:14:57.451Z,16.88
2023-02-09T10:16:00.237Z,18.80
2023-02-09T10:17:02.525Z,19.85
2023-02-09T10:18:14.599Z,19.80
2023-02-09T10:19:29.443Z,19.48
2023-02-09T10:20:46.516Z,20.13
2023-02-09T10:21:49.294Z,20.67
2023-02-09T10:22:52.340Z,21.38
2023-02-09T10:24:00.571Z,21.50
2023-02-09T10:25:23.723Z,20.73
2023-02-09T10:26:28.323Z,21.58
2023-02-09T10:27:31.415Z,19.38
2023-02-09T10:28:54.582Z,21.38
2023-02-09T10:30:17.939Z,22.35
2023-02-09T10:31:27.504Z,22.58
2023-02-09T10:32:39.923Z,21.10
2023-02-09T10:33:45.698Z,22.73
2023-02-09T10:34:52.755Z,22.58
2023-02-09T10:35:58.699Z,22.45
2023-02-09T10:37:20.688Z,23.02
2023-02-09T10:38:26.833Z,21.38
2023-02-09T10:39:33.180Z,25.15
2023-02-09T10:40:40.694Z,21.58
2023-02-09T10:41:45.856Z,20.45
2023-02-09T10:42:58.677Z,20.90
2023-02-09T10:44:06.508Z,20.75
2023-02-09T10:45:29.445Z,20.48
2023-02-09T10:46:33.402Z,22.75
2023-02-09T10:47:35.700Z,22.70
2023-02-09T10:48:44.030Z,21.20
2023-02-09T10:50:06.440Z,21.60
2023-02-09T10:51:29.191Z,21.58
2023-02-09T10:52:36.748Z,24.65
2023-02-09T10:53:56.189Z,29.17
2023-02-09T10:55:06.462Z,28.67
2023-02-09T10:57:36.227Z,29.05
2023-02-09T10:58:40.153Z,21.08
2023-02-09T10:59:42.587Z,21.50
2023-02-09T11:00:59.906Z,22.00
2023-02-09T11:02:02.728Z,27.77
2023-02-09T11:03:17.105Z,22.23
2023-02-09T11:04:23.868Z,22.08
2023-02-09T11:05:29.866Z,22.23
2023-02-09T11:06:48.652Z,22.05
2023-02-09T11:07:59.545Z,23.40
2023-02-09T11:09:05.067Z,24.73
2023-02-09T11:10:13.201Z,25.42
2023-02-09T11:11:33.983Z,25.95
2023-02-09T11:12:37.217Z,25.67
2023-02-09T11:13:41.528Z,24.85
2023-02-09T11:14:44.163Z,27.48
2023-02-09T11:15:58.489Z,26.73
2023-02-09T11:17:36.682Z,25.38
2023-02-09T11:18:43.058Z,23.80
2023-02-09T11:20:04.456Z,25.38
2023-02-09T11:21:15.658Z,27.63
2023-02-09T11:23:01.930Z,28.92
2023-02-09T11:24:56.576Z,24.88
2023-02-09T11:26:10.260Z,24.10
2023-02-09T11:27:18.961Z,25.20
2023-02-09T11:28:55.308Z,23.48
2023-02-09T11:30:09.632Z,25.55
2023-02-09T11:31:14.965Z,22.83
2023-02-09T11:32:27.085Z,23.73
2023-02-09T11:33:41.389Z,24.10
2023-02-09T11:35:09.320Z,23.00
2023-02-09T11:36:42.883Z,25.63
2023-02-09T11:37:56.391Z,23.27
2023-02-09T11:39:14.189Z,26.98
2023-02-09T11:40:33.616Z,28.58
2023-02-09T11:42:29.524Z,25.73
2023-02-09T11:43:38.215Z,24.52
2023-02-09T11:44:43.347Z,23.77
2023-02-09T11:45:48.400Z,23.58
2023-02-09T11:46:56.534Z,22.40
2023-02-09T11:48:03.991Z,24.95
2023-02-09T11:49:16.402Z,24.95
2023-02-09T11:50:42.476Z,23.77
2023-02-09T11:51:46.326Z,23.67
2023-02-09T11:52:55.700Z,23.33
2023-02-09T11:54:23.264Z,24.50
2023-02-09T11:55:25.580Z,21.77
2023-02-09T11:56:28.747Z,23.42
2023-02-09T11:57:40.696Z,23.75
2023-02-09T11:58:47.618Z,22.95
2023-02-09T11:59:57.228Z,23.40
2023-02-09T12:01:24.377Z,23.38
2023-02-09T12:02:40.810Z,26.90
2023-02-09T12:03:55.342Z,23.55
2023-02-09T12:05:01.107Z,25.05
2023-02-09T12:06:04.447Z,24.17
2023-02-09T12:07:28.535Z,22.60
2023-02-09T12:08:44.952Z,24.15
2023-02-09T12:10:00.936Z,22.63
2023-02-09T12:11:54.320Z,25.08
2023-02-09T12:13:33.081Z,23.98
2023-02-09T12:14:41.860Z,23.75
2023-02-09T12:15:50.762Z,25.85
2023-02-09T12:17:19.219Z,24.10
2023-02-09T12:18:24.320Z,23.13
2023-02-09T12:19:37.826Z,23.67
2023-02-09T12:21:00.223Z,24.17
2023-02-09T12:22:34.092Z,25.02
2023-02-09T12:23:44.301Z,25.30
2023-02-09T12:25:05.271Z,23.65
2023-02-09T12:26:40.610Z,22.70
2023-02-09T12:28:04.398Z,22.88
2023-02-09T12:29:38.162Z,23.80
2023-02-09T12:30:40.459Z,24.52
2023-02-09T12:32:04.468Z,26.88
2023-02-09T12:33:28.404Z,23.92
2023-02-09T12:34:43.873Z,24.15
2023-02-09T12:36:08.540Z,26.15
2023-02-09T12:37:13.621Z,26.38
2023-02-09T12:38:20.169Z,24.75
2023-02-09T12:39:24.991Z,26.88
2023-02-09T12:40:36.859Z,27.85
2023-02-09T12:41:41.008Z,25.45
2023-02-09T12:42:46.984Z,25.13
2023-02-09T12:43:50.909Z,24.80
2023-02-09T12:44:58.724Z,25.20
2023-02-09T12:46:12.456Z,25.35
2023-02-09T12:47:44.092Z,24.73
2023-02-09T12:49:02.246Z,25.80
2023-02-09T12:50:24.234Z,26.77
2023-02-09T12:51:50.640Z,24.45
2023-02-09T12:53:31.402Z,24.95
2023-02-09T12:54:58.792Z,25.10
2023-02-09T12:56:09.638Z,27.05
2023-02-09T12:57:15.372Z,25.38
2023-02-09T12:58:37.529Z,23.60
2023-02-09T12:59:39.817Z,23.75
2023-02-09T13:00:43.285Z,25.02
2023-02-09T13:02:07.246Z,24.27
2023-02-09T13:03:18.122Z,24.88
2023-02-09T13:04:21.041Z,26.67
2023-02-09T13:05:38.154Z,24.58
2023-02-09T13:06:54.649Z,23.42
2023-02-09T13:08:06.226Z,23.67
2023-02-09T13:09:16.366Z,22.50
2023-02-09T13:10:27.837Z,22.50
2023-02-09T13:11:40.662Z,23.77
2023-02-09T13:12:48.918Z,23.42
2023-02-09T13:14:18.508Z,22.63
2023-02-09T13:15:21.182Z,22.17
2023-02-09T13:16:23.573Z,23.33
2023-02-09T13:17:40.388Z,24.98
2023-02-09T13:19:10.025Z,28.30
2023-02-09T13:20:18.408Z,26.63
2023-02-09T13:21:35.890Z,25.80
2023-02-09T13:22:59.476Z,25.15
2023-02-09T13:24:15.200Z,22.20
2023-02-09T13:25:41.728Z,22.58
2023-02-09T13:27:03.226Z,23.85
2023-02-09T13:28:26.767Z,24.98
2023-02-09T13:29:33.080Z,25.70
2023-02-09T13:30:37.901Z,25.20
2023-02-09T13:31:49.509Z,26.20
2023-02-09T13:33:21.492Z,24.48
2023-02-09T13:34:42.649Z,22.80
2023-02-09T13:36:08.956Z,22.58
2023-02-09T13:37:22.333Z,21.85
2023-02-09T13:38:29.949Z,23.95
2023-02-09T13:39:37.709Z,22.65
2023-02-09T13:40:47.200Z,24.45
2023-02-09T13:41:50.447Z,24.55
2023-02-09T13:43:11.184Z,23.42
2023-02-09T13:44:25.670Z,23.65
2023-02-09T13:45:28.422Z,24.35
2023-02-09T13:46:35.394Z,24.05
2023-02-09T13:47:43.526Z,23.42
2023-02-09T13:48:45.751Z,24.45
2023-02-09T13:50:04.079Z,22.10
2023-02-09T13:51:19.168Z,23.50
2023-02-09T13:52:23.712Z,22.50
2023-02-09T13:53:28.800Z,25.30
2023-02-09T13:54:31.149Z,27.25
2023-02-09T13:55:37.841Z,30.25
2023-02-09T13:56:40.955Z,32.92
2023-02-09T13:57:46.380Z,28.50
2023-02-09T13:58:49.321Z,27.17
2023-02-09T13:59:52.098Z,29.83
2023-02-09T14:00:59.620Z,29.85
2023-02-09T14:02:02.278Z,26.67
2023-02-09T14:03:15.084Z,26.98
2023-02-09T14:04:25.961Z,29.13
2023-02-09T14:05:46.777Z,27.67
2023-02-09T14:06:58.529Z,24.42
2023-02-09T14:08:01.367Z,24.08
2023-02-09T14:09:06.250Z,24.38
2023-02-09T14:10:16.892Z,25.23
2023-02-09T14:11:33.381Z,23.27
2023-02-09T14:12:52.342Z,22.40
2023-02-09T14:14:00.681Z,21.00
2023-02-09T14:15:21.925Z,22.23
2023-02-09T14:16:27.913Z,20.55
2023-02-09T14:17:35.130Z,20.38
2023-02-09T14:18:46.702Z,20.23
2023-02-09T14:19:49.968Z,20.45
2023-02-09T14:21:16.245Z,21.95
2023-02-09T14:22:34.116Z,21.58
2023-02-09T14:23:37.419Z,18.65
2023-02-09T14:24:44.169Z,19.77
2023-02-09T14:25:48.040Z,19.25
2023-02-09T14:27:04.045Z,21.48
2023-02-09T14:28:06.673Z,19.30
2023-02-09T14:29:17.601Z,19.73
2023-02-09T14:30:23.561Z,21.08
2023-02-09T14:31:26.559Z,19.08
2023-02-09T14:32:45.542Z,21.80
2023-02-09T14:33:50.348Z,20.85
2023-02-09T14:34:52.836Z,21.08
2023-02-09T14:35:57.131Z,20.88
2023-02-09T14:37:24.905Z,20.83
2023-02-09T14:38:43.911Z,19.55
2023-02-09T14:40:01.229Z,17.00
2023-02-09T14:41:29.928Z,19.02
2023-02-09T14:42:33.683Z,17.63
2023-02-09T14:43:36.023Z,18.02
2023-02-09T14:44:47.173Z,18.17